createdAt,value
2022-12-13T00:02:23.592Z,15.43
2022-12-13T00:05:11.309Z,16.33
2022-12-13T00:07:59.778Z,14.43
2022-12-13T00:10:46.780Z,14.53
2022-12-13T00:13:34.377Z,15.43
2022-12-13T00:16:24.563Z,16.67
2022-12-13T00:19:11.538Z,16.10
2022-12-13T00:21:58.585Z,15.17
2022-12-13T00:24:46.263Z,15.07
2022-12-13T00:27:33.283Z,15.53
2022-12-13T00:30:20.292Z,14.67
2022-12-13T00:33:07.448Z,16.47
2022-12-13T00:35:54.903Z,16.17
2022-12-13T00:38:41.873Z,16.83
2022-12-13T00:41:34.972Z,16.60
2022-12-13T00:44:22.057Z,16.27
2022-12-13T00:47:08.980Z,17.13
2022-12-13T00:49:55.962Z,16.77
2022-12-13T00:52:42.907Z,17.47
2022-12-13T00:55:29.845Z,17.83
2022-12-13T00:58:16.764Z,19.63
2022-12-13T01:01:05.868Z,17.87
2022-12-13T01:03:57.692Z,17.17
2022-12-13T01:06:46.695Z,15.83
2022-12-13T01:09:34.085Z,16.67
2022-12-13T01:12:21.042Z,16.43
2022-12-13T01:15:08.785Z,16.23
2022-12-13T01:17:55.765Z,18.00
2022-12-13T01:20:42.692Z,18.60
2022-12-13T01:23:29.766Z,17.20
2022-12-13T01:26:21.479Z,14.57
2022-12-13T01:29:08.970Z,15.20
2022-12-13T01:31:56.183Z,16.07
2022-12-13T01:34:43.152Z,16.53
2022-12-13T01:37:30.097Z,19.87
2022-12-13T01:40:17.061Z,17.67
2022-12-13T01:43:13.971Z,17.40
2022-12-13T01:46:02.245Z,20.80
2022-12-13T01:49:19.627Z,19.27
2022-12-13T01:52:12.665Z,17.80
2022-12-13T01:55:04.127Z,17.93
2022-12-13T01:57:53.566Z,18.33
2022-12-13T02:00:41.070Z,15.40
2022-12-13T02:03:28.385Z,18.30
2022-12-13T02:06:28.492Z,19.10
2022-12-13T02:09:15.961Z,18.23
2022-12-13T02:12:04.204Z,21.33
2022-12-13T02:14:52.454Z,18.40
2022-12-13T02:18:22.891Z,20.37
2022-12-13T02:21:30.565Z,22.40
2022-12-13T02:24:30.782Z,19.40
2022-12-13T02:27:30.433Z,20.50
2022-12-13T02:30:54.086Z,26.50
2022-12-13T02:33:57.386Z,24.67
2022-12-13T02:36:56.189Z,24.20
2022-12-13T02:39:50.938Z,24.67
2022-12-13T02:42:45.880Z,26.40
2022-12-13T02:45:48.052Z,26.03
2022-12-13T02:48:39.573Z,25.57
2022-12-13T02:51:27.609Z,23.57
2022-12-13T02:54:14.557Z,25.00
2022-12-13T02:57:01.533Z,24.63
2022-12-13T02:59:48.657Z,24.20
2022-12-13T03:03:05.463Z,22.43
2022-12-13T03:06:11.398Z,21.67
2022-12-13T03:09:30.325Z,21.97
2022-12-13T03:12:44.930Z,19.23
2022-12-13T03:15:55.971Z,21.73
2022-12-13T03:18:44.129Z,18.07
2022-12-13T03:21:47.274Z,18.67
2022-12-13T03:24:34.825Z,19.30
2022-12-13T03:27:21.831Z,18.13
2022-12-13T03:30:09.258Z,17.60
2022-12-13T03:32:56.247Z,18.17
2022-12-13T03:35:45.814Z,17.27
2022-12-13T03:38:33.079Z,17.23
2022-12-13T03:41:24.091Z,17.87
2022-12-13T03:44:11.047Z,19.67
2022-12-13T03:46:57.990Z,16.80
2022-12-13T03:49:54.045Z,16.13
2022-12-13T03:52:41.463Z,15.73
2022-12-13T03:55:28.809Z,17.00
2022-12-13T03:58:16.021Z,16.97
2022-12-13T04:01:05.742Z,16.93
2022-12-13T04:03:52.817Z,18.03
2022-12-13T04:06:39.785Z,15.97
2022-12-13T04:09:26.725Z,20.23
2022-12-13T04:12:32.082Z,20.00
2022-12-13T04:15:19.014Z,18.73
2022-12-13T04:18:06.309Z,18.30
2022-12-13T04:20:53.313Z,17.70
2022-12-13T04:23:40.291Z,18.80
2022-12-13T04:26:27.297Z,17.63
2022-12-13T04:29:14.265Z,18.00
2022-12-13T04:32:01.270Z,20.17
2022-12-13T04:34:48.255Z,19.43
2022-12-13T04:37:35.200Z,18.70
2022-12-13T04:40:22.212Z,18.57
2022-12-13T04:43:09.614Z,18.23
2022-12-13T04:45:56.729Z,19.60
2022-12-13T04:48:43.743Z,19.30
2022-12-13T04:51:31.247Z,19.13
2022-12-13T04:54:23.943Z,19.23
2022-12-13T04:57:11.956Z,17.83
2022-12-13T04:59:59.252Z,21.17
2022-12-13T05:02:46.231Z,19.07
2022-12-13T05:05:33.756Z,16.13
2022-12-13T05:08:20.763Z,18.07
2022-12-13T05:11:08.661Z,17.57
2022-12-13T05:13:55.639Z,18.27
2022-12-13T05:16:42.749Z,18.13
2022-12-13T05:19:30.776Z,19.27
2022-12-13T05:22:20.644Z,19.43
2022-12-13T05:25:08.495Z,20.33
2022-12-13T05:27:57.276Z,19.13
2022-12-13T05:30:44.689Z,15.77
2022-12-13T05:33:32.187Z,18.53
2022-12-13T05:36:19.408Z,16.37
2022-12-13T05:39:06.347Z,18.87
2022-12-13T05:42:13.290Z,17.83
2022-12-13T05:45:00.341Z,17.40
2022-12-13T05:47:47.588Z,14.13
2022-12-13T05:50:34.985Z,17.00
2022-12-13T05:53:30.541Z,19.47
2022-12-13T05:56:22.535Z,19.13
2022-12-13T05:59:10.064Z,17.17
2022-12-13T06:01:57.157Z,18.07
2022-12-13T06:04:44.896Z,16.63
2022-12-13T06:07:32.110Z,21.03
2022-12-13T06:10:21.839Z,18.97
2022-12-13T06:13:20.972Z,21.17
2022-12-13T06:16:23.728Z,22.23
2022-12-13T06:19:11.333Z,22.33
2022-12-13T06:21:58.295Z,19.80
2022-12-13T06:24:45.279Z,18.80
2022-12-13T06:27:32.238Z,22.23
2022-12-13T06:30:19.195Z,19.47
2022-12-13T06:33:06.210Z,19.00
2022-12-13T06:35:56.861Z,18.60
2022-12-13T06:38:43.920Z,18.70
2022-12-13T06:41:32.349Z,16.90
2022-12-13T06:44:19.396Z,17.47
2022-12-13T06:47:10.297Z,18.43
2022-12-13T06:50:05.622Z,19.67
2022-12-13T06:52:52.958Z,17.90
2022-12-13T06:55:39.902Z,17.63
2022-12-13T06:58:26.989Z,15.67
2022-12-13T07:01:24.211Z,20.57
2022-12-13T07:04:29.020Z,20.93
2022-12-13T07:07:17.793Z,17.60
2022-12-13T07:10:05.196Z,18.97
2022-12-13T07:12:59.638Z,16.77
2022-12-13T07:15:47.201Z,18.60
2022-12-13T07:18:34.167Z,17.60
2022-12-13T07:21:21.552Z,19.30
2022-12-13T07:24:08.976Z,18.37
2022-12-13T07:26:55.915Z,18.03
2022-12-13T07:29:43.119Z,16.27
2022-12-13T07:32:30.394Z,19.50
2022-12-13T07:35:17.341Z,19.00
2022-12-13T07:38:05.156Z,19.93
2022-12-13T07:40:52.193Z,19.17
2022-12-13T07:43:39.200Z,17.93
2022-12-13T07:46:32.355Z,18.83
2022-12-13T07:49:20.618Z,18.23
2022-12-13T07:52:11.288Z,17.77
2022-12-13T07:54:58.300Z,19.40
2022-12-13T07:57:45.239Z,19.33
2022-12-13T08:00:33.237Z,16.77
2022-12-13T08:03:25.517Z,16.77
2022-12-13T08:06:13.721Z,18.53
2022-12-13T08:09:03.702Z,16.53
2022-12-13T08:11:50.639Z,17.80
2022-12-13T08:14:37.607Z,18.07
2022-12-13T08:17:24.574Z,19.00
2022-12-13T08:20:11.691Z,16.27
2022-12-13T08:23:01.840Z,17.03
2022-12-13T08:25:54.303Z,17.57
2022-12-13T08:28:41.452Z,17.53
2022-12-13T08:31:28.535Z,17.73
2022-12-13T08:34:21.062Z,17.57
2022-12-13T08:37:08.270Z,14.80
2022-12-13T08:39:55.225Z,16.37
2022-12-13T08:42:42.218Z,17.70
2022-12-13T08:45:29.567Z,16.70
2022-12-13T08:48:16.507Z,15.10
2022-12-13T08:51:06.761Z,17.43
2022-12-13T08:53:53.752Z,15.53
2022-12-13T08:56:58.029Z,18.23
2022-12-13T08:59:45.051Z,17.70
2022-12-13T09:02:32.093Z,13.60
2022-12-13T09:05:32.930Z,16.17
2022-12-13T09:08:24.804Z,15.63
2022-12-13T09:11:23.927Z,19.03
2022-12-13T09:14:23.596Z,16.03
2022-12-13T09:17:11.012Z,15.47
2022-12-13T09:20:29.077Z,15.67
2022-12-13T09:23:23.990Z,13.93
2022-12-13T09:26:15.041Z,16.13
2022-12-13T09:29:10.677Z,14.87
2022-12-13T09:31:58.639Z,14.47
2022-12-13T09:34:47.019Z,15.13
2022-12-13T09:37:34.620Z,14.00
2022-12-13T09:40:27.311Z,14.60
2022-12-13T09:43:31.890Z,13.80
2022-12-13T09:46:34.666Z,14.53
2022-12-13T09:49:36.108Z,15.33
2022-12-13T09:52:25.755Z,16.93
2022-12-13T09:55:22.686Z,16.13
2022-12-13T09:58:31.980Z,13.67
2022-12-13T10:01:22.534Z,13.17
2022-12-13T10:04:15.292Z,14.40
2022-12-13T10:07:10.096Z,13.47
2022-12-13T10:10:01.446Z,12.53
2022-12-13T10:12:58.172Z,13.33
2022-12-13T10:15:53.737Z,14.33
2022-12-13T10:18:43.573Z,13.30
2022-12-13T10:21:40.026Z,14.40
2022-12-13T10:24:37.361Z,14.43
2022-12-13T10:27:29.117Z,15.90
2022-12-13T10:30:28.029Z,13.13
2022-12-13T10:33:24.779Z,13.30
2022-12-13T10:36:29.788Z,12.87
2022-12-13T10:39:36.103Z,16.80
2022-12-13T10:42:25.864Z,15.03
2022-12-13T10:45:23.261Z,13.43
2022-12-13T10:48:22.411Z,14.23
2022-12-13T10:51:12.824Z,13.20
2022-12-13T10:54:00.703Z,14.23
2022-12-13T10:56:50.255Z,13.97
2022-12-13T10:59:39.492Z,12.70
2022-12-13T11:02:31.441Z,12.83
2022-12-13T11:05:30.890Z,13.40
2022-12-13T11:08:28.423Z,12.27
2022-12-13T11:11:18.386Z,13.40
2022-12-13T11:14:05.357Z,13.37
2022-12-13T11:16:57.544Z,15.07
2022-12-13T11:19:50.972Z,12.23
2022-12-13T11:22:38.728Z,12.27
2022-12-13T11:25:34.077Z,12.50
2022-12-13T11:28:45.618Z,10.43
2022-12-13T11:31:50.809Z,10.97
2022-12-13T11:34:46.917Z,10.63
2022-12-13T11:37:44.850Z,10.30
2022-12-13T11:40:59.100Z,10.60
2022-12-13T11:44:00.053Z,8.97
2022-12-13T11:46:54.967Z,10.33
2022-12-13T11:49:45.632Z,9.70
2022-12-13T11:52:40.337Z,11.63
2022-12-13T11:55:34.009Z,10.03
2022-12-13T11:59:01.328Z,8.83
2022-12-13T12:01:51.763Z,9.30
2022-12-13T12:04:54.907Z,8.00
2022-12-13T12:08:21.129Z,9.30
2022-12-13T12:11:28.523Z,9.67
2022-12-13T12:14:35.818Z,8.73
2022-12-13T12:17:25.004Z,9.07
2022-12-13T12:20:23.473Z,7.90
2022-12-13T12:23:40.024Z,8.17
2022-12-13T12:26:50.204Z,9.17
2022-12-13T12:30:04.279Z,8.87
2022-12-13T12:33:00.556Z,8.43
2022-12-13T12:36:09.578Z,7.40
2022-12-13T12:39:26.416Z,8.20
2022-12-13T12:42:19.810Z,8.57
2022-12-13T12:45:57.823Z,7.97
2022-12-13T12:49:21.843Z,8.50
2022-12-13T12:52:25.725Z,8.13
2022-12-13T12:55:22.771Z,8.63
2022-12-13T12:58:27.076Z,8.50
2022-12-13T13:01:36.148Z,8.10
2022-12-13T13:04:45.446Z,8.43
2022-12-13T13:07:40.090Z,8.77
2022-12-13T13:10:28.348Z,9.23
2022-12-13T13:13:35.473Z,9.23
2022-12-13T13:16:40.179Z,8.83
2022-12-13T13:19:33.074Z,8.90
2022-12-13T13:22:33.397Z,8.17
2022-12-13T13:25:25.982Z,7.90
2022-12-13T13:28:18.230Z,8.80
2022-12-13T13:31:09.115Z,8.60
2022-12-13T13:33:56.298Z,8.70
2022-12-13T13:36:44.740Z,8.17
2022-12-13T13:39:31.612Z,8.97
2022-12-13T13:42:21.121Z,7.77
2022-12-13T13:45:24.912Z,8.33
2022-12-13T13:48:40.312Z,7.87
2022-12-13T13:51:54.917Z,7.70
2022-12-13T13:54:56.005Z,8.80
2022-12-13T13:58:09.452Z,8.90
2022-12-13T14:01:31.378Z,9.83
2022-12-13T14:04:40.517Z,8.93
2022-12-13T14:07:56.404Z,7.63
2022-12-13T14:10:43.329Z,9.97
2022-12-13T14:13:33.287Z,8.83
2022-12-13T14:16:32.187Z,8.17
2022-12-13T14:19:25.237Z,8.40
2022-12-13T14:22:35.012Z,8.93
2022-12-13T14:25:54.352Z,9.23
2022-12-13T14:28:52.455Z,9.83
2022-12-13T14:31:47.885Z,8.67
2022-12-13T14:34:35.382Z,8.57
2022-12-13T14:37:27.094Z,7.93
2022-12-13T14:40:28.850Z,8.43
2022-12-13T14:43:27.993Z,9.07
2022-12-13T14:46:15.719Z,8.60
2022-12-13T14:49:07.656Z,8.17
2022-12-13T14:52:01.517Z,8.77
2022-12-13T14:55:06.177Z,8.03
2022-12-13T14:57:58.656Z,8.23
2022-12-13T15:00:46.043Z,7.87
2022-12-13T15:03:35.121Z,6.93
2022-12-13T15:06:22.328Z,7.97
2022-12-13T15:09:13.126Z,8.27
2022-12-13T15:12:23.673Z,8.57
2022-12-13T15:15:08.843Z,8.07
2022-12-13T15:18:17.225Z,7.40
2022-12-13T15:21:20.893Z,7.23
2022-12-13T15:24:13.467Z,8.13
2022-12-13T15:27:03.919Z,8.60
2022-12-13T15:29:52.136Z,8.13
2022-12-13T15:33:07.855Z,9.20
2022-12-13T15:36:25.045Z,7.37
2022-12-13T15:39:15.209Z,7.80
2022-12-13T15:42:06.289Z,8.03
2022-12-13T15:44:57.020Z,7.10
2022-12-13T15:47:46.636Z,7.57
2022-12-13T15:50:43.709Z,8.30
2022-12-13T15:53:34.366Z,8.30
2022-12-13T15:56:38.615Z,8.47
2022-12-13T15:59:32.137Z,7.93
2022-12-13T16:02:25.020Z,8.13
2022-12-13T16:05:25.340Z,8.03
2022-12-13T16:08:29.850Z,7.70
2022-12-13T16:11:35.633Z,9.07
2022-12-13T16:14:28.409Z,8.57
2022-12-13T16:17:29.111Z,10.80
2022-12-13T16:20:20.025Z,8.00
2022-12-13T16:23:08.885Z,9.13
2022-12-13T16:25:56.460Z,9.83
2022-12-13T16:28:43.422Z,8.47
2022-12-13T16:31:35.469Z,10.20
2022-12-13T16:34:26.192Z,9.00
2022-12-13T16:37:26.310Z,8.57
2022-12-13T16:40:25.431Z,10.10
2022-12-13T16:43:20.677Z,8.93
2022-12-13T16:47:11.548Z,9.63
2022-12-13T16:49:26.963Z,9.53
2022-12-13T16:52:13.933Z,10.00
2022-12-13T16:55:00.898Z,8.73
2022-12-13T16:58:02.686Z,8.90
2022-12-13T17:00:49.744Z,10.37
2022-12-13T17:03:45.283Z,9.37
2022-12-13T17:06:32.332Z,8.97
2022-12-13T17:09:19.524Z,8.47
2022-12-13T17:12:06.745Z,8.20
2022-12-13T17:14:54.336Z,9.20
2022-12-13T17:17:43.928Z,8.57
2022-12-13T17:20:31.823Z,8.37
2022-12-13T17:23:19.194Z,8.63
2022-12-13T17:26:08.461Z,8.67
2022-12-13T17:28:55.867Z,8.70
2022-12-13T17:31:42.830Z,9.10
2022-12-13T17:34:29.956Z,9.20
2022-12-13T17:37:17.192Z,8.63
2022-12-13T17:40:06.941Z,10.57
2022-12-13T17:42:53.924Z,9.93
2022-12-13T17:45:43.820Z,10.07
2022-12-13T17:48:39.016Z,10.33
2022-12-13T17:51:27.608Z,9.47
2022-12-13T17:54:14.710Z,10.03
2022-12-13T17:57:01.767Z,9.50
2022-12-13T17:59:48.961Z,11.97
2022-12-13T18:02:38.100Z,12.40
2022-12-13T18:05:26.231Z,8.93
2022-12-13T18:08:13.293Z,9.53
2022-12-13T18:11:31.284Z,8.10
2022-12-13T18:14:08.359Z,8.33
2022-12-13T18:16:55.748Z,9.20
2022-12-13T18:19:43.057Z,8.73
2022-12-13T18:22:31.648Z,8.77
2022-12-13T18:25:20.450Z,8.43
2022-12-13T18:28:11.289Z,8.80
2022-12-13T18:31:01.806Z,9.00
2022-12-13T18:33:50.272Z,8.90
2022-12-13T18:36:38.874Z,8.77
2022-12-13T18:39:25.845Z,10.03
2022-12-13T18:42:12.805Z,9.53
2022-12-13T18:44:59.820Z,9.67
2022-12-13T18:47:47.054Z,10.17
2022-12-13T18:50:34.310Z,8.87
2022-12-13T18:53:21.456Z,9.20
2022-12-13T18:56:18.275Z,8.83
2022-12-13T18:59:07.150Z,8.97
2022-12-13T19:01:55.155Z,9.23
2022-12-13T19:04:42.397Z,10.50
2022-12-13T19:07:43.252Z,8.80
2022-12-13T19:10:30.212Z,9.17
2022-12-13T19:13:17.194Z,10.07
2022-12-13T19:16:07.421Z,9.20
2022-12-13T19:18:54.495Z,8.90
2022-12-13T19:21:41.977Z,8.57
2022-12-13T19:24:29.168Z,9.30
2022-12-13T19:27:16.230Z,8.53
2022-12-13T19:30:03.555Z,8.63
2022-12-13T19:32:51.647Z,8.80
2022-12-13T19:35:46.506Z,8.57
2022-12-13T19:38:33.551Z,8.30
2022-12-13T19:41:20.640Z,7.87
2022-12-13T19:44:07.658Z,10.07
2022-12-13T19:46:55.919Z,8.73
2022-12-13T19:49:42.986Z,8.33
2022-12-13T19:52:29.957Z,8.97
2022-12-13T19:55:17.075Z,8.80
2022-12-13T19:58:04.001Z,9.97
2022-12-13T20:00:51.362Z,11.03
2022-12-13T20:03:40.657Z,10.17
2022-12-13T20:06:27.632Z,9.10
2022-12-13T20:09:14.670Z,10.53
2022-12-13T20:12:01.682Z,9.43
2022-12-13T20:14:48.678Z,8.87
2022-12-13T20:17:36.096Z,9.43
2022-12-13T20:20:31.502Z,9.20
2022-12-13T20:23:23.335Z,8.97
2022-12-13T20:26:14.163Z,9.40
2022-12-13T20:29:01.160Z,10.30
2022-12-13T20:31:49.982Z,9.07
2022-12-13T20:34:36.985Z,10.77
2022-12-13T20:37:24.240Z,9.57
2022-12-13T20:40:11.640Z,10.60
2022-12-13T20:42:58.675Z,11.03
2022-12-13T20:45:45.652Z,10.17
2022-12-13T20:48:37.555Z,9.57
2022-12-13T20:51:26.710Z,10.73
2022-12-13T20:54:13.768Z,10.83
2022-12-13T20:57:00.722Z,11.47
2022-12-13T20:59:47.733Z,9.40
2022-12-13T21:02:34.724Z,10.00
2022-12-13T21:05:21.757Z,9.37
2022-12-13T21:08:27.342Z,18.87
2022-12-13T21:11:26.606Z,30.80
2022-12-13T21:14:25.031Z,30.37
2022-12-13T21:17:12.041Z,36.77
2022-12-13T21:19:59.034Z,21.00
2022-12-13T21:22:46.290Z,14.77
2022-12-13T21:25:33.214Z,17.03
2022-12-13T21:28:20.826Z,16.97
2022-12-13T21:31:11.522Z,12.60
2022-12-13T21:34:01.171Z,9.10
2022-12-13T21:36:50.060Z,11.50
2022-12-13T21:39:37.021Z,10.10
2022-12-13T21:42:24.036Z,8.80
2022-12-13T21:45:11.269Z,9.07
2022-12-13T21:47:58.207Z,9.70
2022-12-13T21:50:49.807Z,8.87
2022-12-13T21:53:36.865Z,9.77
2022-12-13T21:56:44.972Z,9.10
2022-12-13T21:59:32.051Z,10.43
2022-12-13T22:02:19.453Z,10.53
2022-12-13T22:05:07.077Z,9.37
2022-12-13T22:07:54.169Z,11.77
2022-12-13T22:11:01.080Z,9.77
2022-12-13T22:13:48.588Z,8.57
2022-12-13T22:16:35.838Z,8.60
2022-12-13T22:19:22.916Z,8.63
2022-12-13T22:22:10.945Z,8.70
2022-12-13T22:24:57.986Z,8.20
2022-12-13T22:27:44.952Z,8.77
2022-12-13T22:30:31.951Z,8.37
2022-12-13T22:33:18.895Z,8.30
2022-12-13T22:36:06.630Z,8.80
2022-12-13T22:38:53.665Z,7.70
2022-12-13T22:41:40.623Z,8.07
2022-12-13T22:44:27.681Z,7.80
2022-12-13T22:47:14.759Z,7.80
2022-12-13T22:50:01.752Z,7.80
2022-12-13T22:52:48.689Z,9.10
2022-12-13T22:55:35.748Z,10.90
2022-12-13T22:58:22.767Z,9.00
2022-12-13T23:01:24.376Z,9.03
2022-12-13T23:04:11.667Z,8.70
2022-12-13T23:06:58.652Z,8.73
2022-12-13T23:09:45.585Z,10.17
2022-12-13T23:12:51.145Z,8.80
2022-12-13T23:15:38.726Z,9.73
2022-12-13T23:18:25.988Z,9.03
2022-12-13T23:21:13.629Z,9.57
2022-12-13T23:24:01.033Z,8.33
2022-12-13T23:26:48.076Z,8.97
2022-12-13T23:29:35.171Z,11.07
2022-12-13T23:32:22.239Z,9.00
2022-12-13T23:35:10.208Z,10.23
2022-12-13T23:37:57.154Z,9.30
2022-12-13T23:40:44.101Z,10.00
2022-12-13T23:43:31.425Z,8.87
2022-12-13T23:46:21.419Z,9.90
2022-12-13T23:49:10.128Z,9.80
2022-12-13T23:51:57.080Z,9.77
2022-12-13T23:54:44.061Z,11.80
2022-12-13T23:57:31.010Z,10.57
